Flight Track Log - Related Links

Times and Time Zones

All times are in EDT time to prevent confusion due to time zone crossing. See the SWA2975 flight status page for this flight to view local times or setup timezone preferences in your user account.

Time Position Orientation Groundspeed Altitude Reporting Facility
EDT Latitude Longitude Course Direction KTS MPH feet Rate Location/Type
Sun 04:14:30 PM 39.8520 -104.6940 270° West 26 30  Level FlightAware ADS-B
Sun 04:18:04 PM 39.9230 -104.8130 308° West 275 316 9,100 2,390 Climbing FlightAware ADS-B
Sun 04:18:36 PM 39.9350 -104.8640 287° West 286 329 9,800 667 Climbing FlightAware ADS-B
Sun 04:18:58 PM 39.9410 -104.9010 282° West 295 339 9,700 500 Descending FlightAware ADS-B
Sun 04:19:00 PM 39.9333 -104.9000 270° West 288 331 10,000 2,286 Climbing Denver TRACON
Sun 04:19:40 PM 39.9460 -104.9760 275° West 293 337 11,300 2,804 Climbing FlightAware ADS-B
Sun 04:20:32 PM 39.9560 -105.0670 278° West 294 338 14,300 2,186 Climbing FlightAware ADS-B
Sun 04:24:00 PM 39.9333 -105.5729 270° West  Level FlightAware Approximate
Sun 04:24:09 PM 40.0460 -105.4730 270° West 343 395 21,100  Level FlightAware ADS-B
Sun 04:24:51 PM 40.0860 -105.5430 307° West 345 397 22,800 2,233 Climbing FlightAware ADS-B
Sun 04:25:35 PM 40.1310 -105.6180 308° West 353 406 24,300 1,929 Climbing FlightAware ADS-B
Sun 04:26:15 PM 40.1670 -105.6870 304° West 367 422 25,500 1,714 Climbing FlightAware ADS-B
Sun 04:26:31 PM 40.1830 -105.7140 308° West 369 425 25,900 536 Climbing FlightAware ADS-B
Sun 04:27:11 PM 40.2370 -105.7740 320° Northwest 370 426 26,000 72 Climbing FlightAware ADS-B
Sun 04:27:54 PM 40.2930 -105.8340 321° Northwest 368 423 26,000  Level FlightAware ADS-B
Sun 04:28:34 PM 40.3320 -105.8950 310° West 369 425 26,000  Level FlightAware ADS-B
Sun 04:29:18 PM 40.3590 -105.9950 290° West 360 414 26,000  Level FlightAware ADS-B
Sun 04:29:53 PM 40.3780 -106.0580 292° West 360 414 26,000 421 Level FlightAware ADS-B
Sun 04:31:12 PM 40.3810 -106.2090 272° West 376 433 26,800 968 Climbing FlightAware ADS-B
Sun 04:31:57 PM 40.3690 -106.3390 263° West 382 440 28,000 828 Climbing FlightAware ADS-B
Sun 04:32:39 PM 40.3610 -106.4210 263° West 382 440 28,000  Level FlightAware ADS-B
Sun 04:33:26 PM 40.3520 -106.5130 263° West 382 440 28,000  Level FlightAware ADS-B
Sun 04:34:02 PM 40.3460 -106.5840 264° West 382 440 28,000  Level FlightAware ADS-B
Sun 04:34:50 PM 40.3370 -106.6780 263° West 382 440 28,000  Level FlightAware ADS-B
Sun 04:35:28 PM 40.3300 -106.7520 263° West 382 440 28,000 1,413 Level FlightAware ADS-B
Sun 04:38:18 PM 40.2220 -107.2580 255° West 439 505 32,900 1,706 Climbing FlightAware ADS-B
Sun 04:38:59 PM 40.2150 -107.3680 265° West 435 501 34,000 1,663 Climbing FlightAware ADS-B
Sun 04:39:41 PM 40.2080 -107.4840 266° West 428 493 35,200 1,429 Climbing FlightAware ADS-B
Sun 04:40:23 PM 40.2010 -107.5890 265° West 425 489 36,000 565 Climbing FlightAware ADS-B
Sun 04:41:06 PM 40.1940 -107.7010 265° West 424 488 36,000  Level FlightAware ADS-B
Sun 04:41:49 PM 40.1860 -107.8110 265° West 424 488 36,000  Level FlightAware ADS-B
Sun 04:42:31 PM 40.1790 -107.9160 265° West 424 488 36,000  Level FlightAware ADS-B
Sun 04:43:12 PM 40.1720 -108.0170 265° West 424 488 36,000  Level FlightAware ADS-B
Sun 04:43:53 PM 40.1640 -108.1260 265° West 426 490 36,000  Level FlightAware ADS-B
Sun 04:44:35 PM 40.1570 -108.2340 265° West 426 490 36,000  Level FlightAware ADS-B
Sun 04:45:16 PM 40.1490 -108.3380 264° West 427 491 36,000  Level FlightAware ADS-B
Sun 04:45:56 PM 40.1420 -108.4400 265° West 429 494 36,000  Level FlightAware ADS-B
Sun 04:46:43 PM 40.1330 -108.5600 264° West 430 495 36,000  Level FlightAware ADS-B
Sun 04:47:23 PM 40.1250 -108.6650 264° West 435 501 36,000  Level FlightAware ADS-B
Sun 04:48:05 PM 40.1160 -108.7760 264° West 435 501 36,000  Level FlightAware ADS-B
Sun 04:48:51 PM 40.1090 -108.8920 266° West 432 497 36,000  Level FlightAware ADS-B
Sun 04:49:26 PM 40.1120 -108.9830 272° West 431 496 36,000  Level FlightAware ADS-B
Sun 04:50:13 PM 40.1170 -109.1090 273° West 431 496 36,000  Level FlightAware ADS-B
Sun 04:50:50 PM 40.1200 -109.2060 272° West 433 498 36,000  Level FlightAware ADS-B
Sun 04:51:31 PM 40.1230 -109.3070 272° West 434 499 36,000  Level FlightAware ADS-B
Sun 04:52:17 PM 40.1270 -109.4210 273° West 433 498 36,000  Level FlightAware ADS-B
Sun 04:52:58 PM 40.1310 -109.5390 273° West 434 499 36,000  Level FlightAware ADS-B
Sun 04:53:40 PM 40.1350 -109.6390 273° West 432 497 36,000 -439 Level FlightAware ADS-B
Sun 04:54:20 PM 40.1380 -109.7520 272° West 434 499 35,400 -988 Descending FlightAware ADS-B
Sun 04:55:05 PM 40.1420 -109.8710 273° West 432 497 34,600 -1,034 Descending FlightAware ADS-B
Sun 04:55:47 PM 40.1450 -109.9700 272° West 425 489 33,900 -1,024 Descending FlightAware ADS-B
Sun 04:56:27 PM 40.1480 -110.0740 272° West 421 484 33,200 -1,047 Descending FlightAware ADS-B
Sun 04:57:13 PM 40.1490 -110.1980 271° West 416 479 32,400 -1,000 Descending FlightAware ADS-B
Sun 04:57:51 PM 40.1480 -110.2820 269° West 412 474 31,800 -1,000 Descending FlightAware ADS-B
Sun 04:58:37 PM 40.1470 -110.4010 269° West 409 471 31,000 -571 Descending FlightAware ADS-B
Sun 04:59:15 PM 40.1460 -110.4810 269° West 409 471 31,000  Level FlightAware ADS-B
Sun 05:01:01 PM 40.1430 -110.7040 269° West 409 471 31,000 -2,286 Level FlightAware ADS-B
Sun 05:01:42 PM 40.1420 -110.8440 270° West 376 433 25,400 -4,253 Descending FlightAware ADS-B
Sun 05:02:20 PM 40.1400 -110.9170 268° West 376 433 25,400  Level FlightAware ADS-B
Sun 05:03:09 PM 40.1370 -111.0120 268° West 376 433 25,400  Level FlightAware ADS-B
Sun 05:03:46 PM 40.1350 -111.0830 268° West 376 433 25,400  Level FlightAware ADS-B
Sun 05:04:34 PM 40.1330 -111.1760 268° West 376 433 25,400 -1,719 Level FlightAware ADS-B
Sun 05:10:10 PM 40.2770 -111.8140 287° West 295 339 14,400 -2,090 Descending FlightAware ADS-B
Sun 05:10:50 PM 40.3250 -111.8660 320° Northwest 283 326 12,300 -1,563 Descending FlightAware ADS-B
Sun 05:11:46 PM 40.3760 -111.9180 322° Northwest 282 325 11,900 -966 Descending FlightAware ADS-B
Sun 05:12:17 PM 40.4230 -111.9320 347° North 266 306 10,900 -1,163 Descending FlightAware ADS-B
Sun 05:13:24 PM 40.4990 -111.9410 355° North 242 278 10,000 -813 Descending FlightAware ADS-B
Sun 05:13:53 PM 40.5300 -111.9450 354° North 233 268 9,600 -1,138 Descending FlightAware ADS-B
Sun 05:14:22 PM 40.5620 -111.9480 356° North 233 268 8,900 -1,255 Descending FlightAware ADS-B
Sun 05:15:43 PM 40.6290 -111.9570 354° North 215 247 7,300 -1,376 Descending FlightAware ADS-B
Sun 05:16:11 PM 40.6690 -111.9610 356° North 194 223 6,400 -1,469 Descending FlightAware ADS-B
Sun 05:16:32 PM 40.6880 -111.9640 353° North 166 191 6,100 -1,277 Descending FlightAware ADS-B
Sun 05:16:58 PM 40.7080 -111.9650 358° North 159 183 5,400 -1,333 Descending FlightAware ADS-B
Sun 05:17:26 PM 40.7270 -111.9680 353° North 155 178 4,900 -878 Descending FlightAware ADS-B
Sun 05:17:39 PM 40.7360 -111.9690 355° North 157 181 4,800 -600 Descending FlightAware ADS-B
Sun 05:18:06 PM 40.7560 -111.9710 356° North 155 178 4,500 -411 Descending FlightAware ADS-B
Sun 05:18:52 PM 40.7860 -111.9750 354° North 156 180 4,300 -261 Descending FlightAware ADS-B
Sun 05:26:00 PM 40.7833 -111.9667 North  Level FlightAware Approximate

Login

Don't have an account? Register now (free) for customized features, flight alerts, and more!